createdAt,value
2019-05-02T00:01:38.572Z,10.50
2019-05-02T00:04:12.418Z,10.60
2019-05-02T00:06:42.917Z,10.50
2019-05-02T00:09:11.255Z,10.60
2019-05-02T00:11:40.628Z,10.70
2019-05-02T00:14:10.702Z,10.70
2019-05-02T00:16:40.127Z,10.70
2019-05-02T00:19:13.982Z,10.70
2019-05-02T00:21:42.963Z,10.70
2019-05-02T00:24:13.903Z,10.80
2019-05-02T00:26:43.182Z,10.80
2019-05-02T00:29:12.413Z,10.90
2019-05-02T00:31:46.307Z,10.90
2019-05-02T00:34:12.601Z,10.90
2019-05-02T00:36:41.765Z,10.90
2019-05-02T00:39:13.814Z,10.90
2019-05-02T00:41:41.925Z,10.90
2019-05-02T00:44:12.249Z,10.90
2019-05-02T00:46:41.718Z,10.90
2019-05-02T00:49:11.053Z,10.90
2019-05-02T00:51:40.370Z,10.90
2019-05-02T00:54:09.615Z,10.90
2019-05-02T00:56:40.250Z,10.80
2019-05-02T00:59:09.798Z,10.80
2019-05-02T01:02:10.317Z,10.80
2019-05-02T01:04:41.447Z,10.80
2019-05-02T01:07:11.182Z,10.80
2019-05-02T01:09:42.261Z,10.80
2019-05-02T01:12:11.413Z,10.70
2019-05-02T01:14:40.642Z,10.70
2019-05-02T01:17:09.831Z,10.70
2019-05-02T01:19:39.153Z,10.70
2019-05-02T01:22:10.712Z,10.70
2019-05-02T01:24:41.527Z,10.70
2019-05-02T01:27:36.022Z,10.70
2019-05-02T01:30:16.114Z,10.70
2019-05-02T01:32:56.191Z,10.60
2019-05-02T01:35:38.601Z,10.60
2019-05-02T01:38:16.013Z,10.60
2019-05-02T01:40:53.101Z,10.60
2019-05-02T01:43:25.455Z,10.50
2019-05-02T01:45:55.194Z,10.50
2019-05-02T01:48:24.775Z,10.50
2019-05-02T01:50:54.216Z,10.60
2019-05-02T01:53:23.556Z,10.60
2019-05-02T01:55:57.369Z,10.60
2019-05-02T01:58:23.817Z,10.60
2019-05-02T02:00:53.132Z,10.70
2019-05-02T02:03:22.734Z,10.70
2019-05-02T02:05:52.038Z,10.70
2019-05-02T02:08:21.298Z,10.70
2019-05-02T02:10:55.877Z,10.70
2019-05-02T02:13:21.433Z,10.70
2019-05-02T02:15:50.701Z,10.70
2019-05-02T02:18:22.092Z,10.70
2019-05-02T02:21:20.304Z,10.70
2019-05-02T02:23:55.891Z,10.70
2019-05-02T02:26:25.511Z,10.70
2019-05-02T02:28:54.784Z,10.80
2019-05-02T02:31:24.124Z,10.80
2019-05-02T02:33:53.364Z,10.80
2019-05-02T02:36:31.284Z,10.80
2019-05-02T02:38:53.676Z,10.80
2019-05-02T02:41:22.998Z,10.80
2019-05-02T02:44:20.375Z,10.80
2019-05-02T02:46:49.883Z,10.80
2019-05-02T02:49:21.692Z,10.90
2019-05-02T02:51:50.030Z,10.90
2019-05-02T02:54:19.342Z,10.90
2019-05-02T02:56:48.546Z,10.90
2019-05-02T02:59:19.670Z,10.90
2019-05-02T03:01:48.704Z,10.90
2019-05-02T03:04:17.967Z,10.90
2019-05-02T03:06:47.313Z,10.90
2019-05-02T03:09:20.163Z,10.90
2019-05-02T03:12:06.518Z,10.90
2019-05-02T03:14:40.818Z,10.90
2019-05-02T03:17:09.268Z,10.90
2019-05-02T03:19:38.537Z,10.90
2019-05-02T03:22:07.851Z,10.80
2019-05-02T03:24:44.276Z,10.80
2019-05-02T03:27:08.348Z,10.80
2019-05-02T03:29:44.335Z,10.80
2019-05-02T03:32:16.200Z,10.80
2019-05-02T03:34:53.046Z,10.80
2019-05-02T03:37:13.848Z,10.70
2019-05-02T03:39:49.759Z,10.70
2019-05-02T03:42:14.200Z,10.70
2019-05-02T03:44:55.267Z,10.70
2019-05-02T03:47:14.562Z,10.70
2019-05-02T03:49:48.664Z,10.60
2019-05-02T03:52:14.883Z,10.60
2019-05-02T03:54:50.281Z,10.60
2019-05-02T03:57:15.551Z,10.60
2019-05-02T03:59:44.850Z,10.60
2019-05-02T04:02:20.278Z,10.50
2019-05-02T04:04:54.263Z,10.50
2019-05-02T04:07:20.266Z,10.40
2019-05-02T04:09:49.736Z,10.40
2019-05-02T04:12:21.869Z,10.40
2019-05-02T04:14:55.625Z,10.40
2019-05-02T04:17:22.123Z,10.40
2019-05-02T04:19:51.501Z,10.40
2019-05-02T04:22:21.556Z,10.40
2019-05-02T04:24:54.578Z,10.50
2019-05-02T04:27:27.909Z,10.40
2019-05-02T04:29:52.857Z,10.40
2019-05-02T04:32:22.213Z,10.40
2019-05-02T04:34:55.060Z,10.40
2019-05-02T04:37:22.470Z,10.40
2019-05-02T04:39:53.757Z,10.50
2019-05-02T04:42:23.370Z,10.60
2019-05-02T04:45:12.864Z,10.60
2019-05-02T04:47:23.904Z,10.70
2019-05-02T04:49:53.222Z,10.70
2019-05-02T04:52:22.576Z,10.70
2019-05-02T04:54:51.895Z,10.70
2019-05-02T04:57:27.143Z,10.70
2019-05-02T05:00:02.494Z,10.70
2019-05-02T05:02:34.303Z,10.70
2019-05-02T05:04:54.072Z,10.70
2019-05-02T05:07:23.740Z,10.70
2019-05-02T05:09:58.203Z,10.80
2019-05-02T05:12:23.916Z,10.80
2019-05-02T05:14:53.240Z,10.80
2019-05-02T05:17:25.189Z,10.80
2019-05-02T05:19:53.337Z,10.80
2019-05-02T05:22:22.682Z,10.90
2019-05-02T05:25:01.407Z,10.90
2019-05-02T05:27:30.672Z,10.90
2019-05-02T05:30:07.925Z,11.00
2019-05-02T05:32:30.892Z,11.00
2019-05-02T05:35:03.197Z,11.00
2019-05-02T05:37:31.117Z,11.00
2019-05-02T05:40:00.712Z,11.10
2019-05-02T05:42:33.210Z,11.10
2019-05-02T05:45:03.674Z,11.10
2019-05-02T05:47:31.976Z,10.90
2019-05-02T05:50:01.470Z,11.00
2019-05-02T05:52:33.027Z,11.00
2019-05-02T05:55:04.920Z,11.00
2019-05-02T05:57:33.388Z,11.00
2019-05-02T06:00:08.366Z,11.10
2019-05-02T06:02:52.343Z,11.10
2019-05-02T06:05:07.788Z,11.20
2019-05-02T06:07:41.924Z,11.30
2019-05-02T06:10:08.300Z,11.20
2019-05-02T06:12:39.016Z,11.30
2019-05-02T06:15:09.102Z,11.40
2019-05-02T06:17:38.394Z,11.40
2019-05-02T06:20:08.249Z,11.50
2019-05-02T06:22:37.682Z,11.60
2019-05-02T06:25:09.472Z,11.60
2019-05-02T06:27:38.979Z,11.50
2019-05-02T06:30:08.827Z,11.60
2019-05-02T06:32:38.070Z,11.70
2019-05-02T06:35:08.944Z,11.70
2019-05-02T06:37:40.594Z,11.90
2019-05-02T06:40:09.519Z,12.00
2019-05-02T06:42:39.061Z,12.20
2019-05-02T06:45:09.402Z,12.30
2019-05-02T06:47:41.714Z,12.30
2019-05-02T06:50:10.237Z,12.20
2019-05-02T06:52:39.567Z,12.20
2019-05-02T06:55:10.014Z,12.20
2019-05-02T06:57:39.367Z,12.30
2019-05-02T07:00:10.670Z,12.40
2019-05-02T07:02:39.990Z,12.50
2019-05-02T07:05:09.221Z,12.30
2019-05-02T07:07:38.494Z,12.30
2019-05-02T07:10:08.481Z,12.30
2019-05-02T07:12:37.727Z,12.40
2019-05-02T07:15:10.844Z,12.60
2019-05-02T07:17:42.273Z,12.80
2019-05-02T07:20:11.953Z,12.90
2019-05-02T07:22:41.408Z,13.00
2019-05-02T07:25:11.227Z,13.00
2019-05-02T07:27:40.517Z,13.10
2019-05-02T07:30:11.680Z,13.10
2019-05-02T07:32:40.928Z,13.10
2019-05-02T07:35:10.803Z,13.10
2019-05-02T07:37:43.964Z,13.30
2019-05-02T07:40:12.154Z,13.50
2019-05-02T07:42:43.178Z,13.60
2019-05-02T07:45:12.660Z,13.70
2019-05-02T07:47:42.514Z,13.80
2019-05-02T07:50:12.581Z,13.90
2019-05-02T07:52:41.891Z,13.90
2019-05-02T07:55:11.341Z,13.90
2019-05-02T07:57:41.013Z,14.00
2019-05-02T08:00:11.136Z,14.00
2019-05-02T08:02:40.465Z,14.10
2019-05-02T08:05:09.992Z,14.00
2019-05-02T08:07:39.250Z,14.10
2019-05-02T08:10:09.066Z,14.00
2019-05-02T08:12:39.767Z,14.10
2019-05-02T08:15:13.325Z,14.20
2019-05-02T08:17:40.235Z,14.20
2019-05-02T08:20:13.552Z,14.40
2019-05-02T08:22:43.947Z,14.60
2019-05-02T08:25:11.718Z,14.60
2019-05-02T08:27:56.160Z,14.70
2019-05-02T08:30:28.847Z,14.70
2019-05-02T08:32:58.171Z,14.90
2019-05-02T08:35:28.247Z,14.90
2019-05-02T08:37:57.891Z,15.10
2019-05-02T08:40:27.303Z,15.20
2019-05-02T08:42:56.944Z,15.10
2019-05-02T08:45:26.795Z,15.10
2019-05-02T08:48:00.182Z,15.20
2019-05-02T08:50:31.529Z,15.30
2019-05-02T08:52:58.205Z,15.50
2019-05-02T08:55:29.912Z,15.40
2019-05-02T08:57:58.683Z,15.40
2019-05-02T09:00:32.254Z,15.60
2019-05-02T09:03:02.737Z,15.60
2019-05-02T09:05:30.074Z,15.70
2019-05-02T09:07:59.448Z,15.80
2019-05-02T09:10:28.706Z,15.90
2019-05-02T09:12:57.989Z,15.90
2019-05-02T09:15:27.436Z,16.00
2019-05-02T09:17:56.848Z,15.90
2019-05-02T09:20:26.184Z,15.90
2019-05-02T09:22:56.127Z,16.00
2019-05-02T09:25:25.760Z,16.10
2019-05-02T09:27:55.127Z,16.10
2019-05-02T09:30:25.969Z,16.20
2019-05-02T09:32:57.321Z,16.20
2019-05-02T09:35:26.246Z,16.30
2019-05-02T09:37:55.497Z,16.50
2019-05-02T09:40:24.841Z,16.40
2019-05-02T09:42:58.509Z,16.40
2019-05-02T09:45:33.472Z,16.50
2019-05-02T09:48:07.114Z,16.60
2019-05-02T09:50:34.802Z,16.70
2019-05-02T09:53:03.869Z,16.60
2019-05-02T09:55:33.171Z,16.70
2019-05-02T09:58:03.006Z,16.80
2019-05-02T10:00:57.287Z,16.90
2019-05-02T10:03:26.680Z,16.90
2019-05-02T10:05:56.010Z,16.90
2019-05-02T10:08:25.440Z,16.80
2019-05-02T10:10:54.675Z,16.80
2019-05-02T10:13:23.922Z,16.80
2019-05-02T10:15:53.582Z,16.90
2019-05-02T10:18:25.543Z,17.00
2019-05-02T10:20:54.124Z,17.00
2019-05-02T10:23:23.874Z,16.90
2019-05-02T10:25:53.161Z,17.00
2019-05-02T10:28:23.008Z,17.00
2019-05-02T10:30:56.442Z,17.20
2019-05-02T10:33:23.411Z,17.30
2019-05-02T10:35:52.784Z,17.50
2019-05-02T10:38:24.081Z,17.30
2019-05-02T10:41:01.342Z,17.20
2019-05-02T10:43:24.908Z,17.10
2019-05-02T10:46:01.422Z,17.30
2019-05-02T10:48:33.005Z,17.50
2019-05-02T10:51:25.330Z,17.50
2019-05-02T10:53:52.706Z,17.30
2019-05-02T10:56:22.426Z,17.40
2019-05-02T10:58:52.336Z,17.40
2019-05-02T11:01:23.655Z,17.40
2019-05-02T11:03:53.319Z,17.30
2019-05-02T11:06:22.632Z,17.40
2019-05-02T11:08:52.512Z,17.30
2019-05-02T11:11:22.708Z,17.30
2019-05-02T11:14:06.656Z,17.40
2019-05-02T11:16:56.835Z,17.40
2019-05-02T11:19:42.481Z,17.50
2019-05-02T11:22:12.192Z,17.50
2019-05-02T11:24:41.847Z,17.50
2019-05-02T11:27:12.782Z,17.60
2019-05-02T11:29:42.558Z,17.70
2019-05-02T11:32:12.777Z,17.80
2019-05-02T11:34:42.363Z,17.60
2019-05-02T11:37:12.233Z,17.80
2019-05-02T11:39:46.152Z,18.00
2019-05-02T11:42:17.776Z,18.00
2019-05-02T11:44:44.720Z,17.80
2019-05-02T11:47:17.248Z,17.90
2019-05-02T11:49:46.832Z,17.90
2019-05-02T11:52:15.965Z,18.00
2019-05-02T11:54:48.467Z,18.00
2019-05-02T11:57:21.036Z,18.10
2019-05-02T11:59:48.133Z,18.10
2019-05-02T12:02:56.264Z,18.20
2019-05-02T12:05:26.651Z,18.30
2019-05-02T12:07:55.306Z,18.10
2019-05-02T12:10:27.930Z,18.20
2019-05-02T12:12:55.634Z,18.40
2019-05-02T12:15:24.938Z,18.30
2019-05-02T12:17:54.288Z,18.30
2019-05-02T12:20:23.766Z,18.20
2019-05-02T12:22:53.172Z,18.20
2019-05-02T12:25:22.443Z,18.20
2019-05-02T12:27:52.742Z,18.30
2019-05-02T12:30:22.858Z,18.20
2019-05-02T12:32:53.116Z,18.30
2019-05-02T12:35:22.975Z,18.30
2019-05-02T12:37:55.176Z,18.20
2019-05-02T12:40:23.676Z,18.50
2019-05-02T12:42:52.916Z,18.80
2019-05-02T12:45:22.236Z,18.70
2019-05-02T12:47:52.293Z,18.50
2019-05-02T12:50:45.511Z,18.50
2019-05-02T12:53:14.934Z,18.50
2019-05-02T12:55:44.305Z,18.40
2019-05-02T12:58:13.626Z,18.60
2019-05-02T13:00:43.281Z,18.60
2019-05-02T13:03:31.777Z,18.60
2019-05-02T13:06:02.998Z,18.70
2019-05-02T13:08:34.338Z,18.70
2019-05-02T13:11:18.075Z,18.60
2019-05-02T13:13:47.339Z,18.60
2019-05-02T13:16:16.703Z,18.70
2019-05-02T13:18:45.980Z,18.90
2019-05-02T13:21:20.785Z,19.50
2019-05-02T13:23:54.595Z,20.50
2019-05-02T13:26:27.087Z,20.90
2019-05-02T13:28:54.909Z,20.60
2019-05-02T13:31:43.193Z,20.90
2019-05-02T13:34:31.956Z,21.10
2019-05-02T13:37:02.928Z,20.80
2019-05-02T13:39:43.735Z,20.40
2019-05-02T13:42:13.174Z,20.50
2019-05-02T13:44:49.412Z,20.50
2019-05-02T13:47:21.872Z,20.30
2019-05-02T13:49:54.814Z,20.10
2019-05-02T13:52:22.730Z,20.20
2019-05-02T13:54:52.320Z,20.20
2019-05-02T13:57:21.919Z,20.00
2019-05-02T13:59:52.579Z,19.90
2019-05-02T14:02:42.665Z,20.00
2019-05-02T14:05:13.262Z,20.30
2019-05-02T14:07:48.403Z,20.30
2019-05-02T14:10:34.111Z,20.40
2019-05-02T14:13:03.196Z,20.20
2019-05-02T14:15:36.956Z,20.20
2019-05-02T14:18:06.214Z,20.00
2019-05-02T14:20:37.406Z,20.00
2019-05-02T14:23:06.612Z,19.90
2019-05-02T14:25:35.956Z,19.90
2019-05-02T14:28:05.245Z,20.00
2019-05-02T14:30:39.390Z,20.20
2019-05-02T14:33:11.763Z,20.00
2019-05-02T14:35:42.609Z,19.80
2019-05-02T14:38:15.870Z,20.00
2019-05-02T14:41:14.818Z,19.90
2019-05-02T14:43:55.482Z,19.80
2019-05-02T14:46:35.367Z,19.90
2019-05-02T14:48:57.435Z,19.90
2019-05-02T14:51:27.989Z,20.30
2019-05-02T14:54:02.556Z,20.30
2019-05-02T14:56:47.787Z,19.90
2019-05-02T14:59:19.644Z,19.60
2019-05-02T15:01:50.279Z,19.60
2019-05-02T15:04:19.516Z,19.50
2019-05-02T15:06:48.775Z,19.60
2019-05-02T15:09:24.813Z,19.40
2019-05-02T15:11:58.436Z,19.50
2019-05-02T15:14:33.088Z,19.50
2019-05-02T15:17:02.877Z,19.50
2019-05-02T15:19:33.253Z,19.50
2019-05-02T15:22:02.911Z,19.50
2019-05-02T15:24:36.160Z,19.50
2019-05-02T15:27:11.493Z,19.60
2019-05-02T15:29:34.062Z,19.70
2019-05-02T15:32:14.896Z,19.60
2019-05-02T15:35:02.648Z,19.50
2019-05-02T15:37:33.169Z,19.60
2019-05-02T15:42:35.766Z,19.30
2019-05-02T15:45:08.779Z,19.00
2019-05-02T15:47:41.587Z,18.90
2019-05-02T15:50:09.375Z,18.90
2019-05-02T15:52:41.944Z,18.90
2019-05-02T15:55:11.851Z,19.00
2019-05-02T15:57:43.742Z,18.90
2019-05-02T16:00:21.912Z,18.70
2019-05-02T16:02:46.303Z,18.60
2019-05-02T16:05:15.689Z,18.60
2019-05-02T16:07:46.654Z,18.60
2019-05-02T16:10:16.106Z,18.70
2019-05-02T16:12:47.029Z,18.40
2019-05-02T16:15:21.526Z,18.10
2019-05-02T16:17:47.407Z,17.90
2019-05-02T16:20:24.054Z,17.80
2019-05-02T16:22:53.371Z,17.70
2019-05-02T16:25:24.522Z,17.70
2019-05-02T16:27:57.537Z,17.60
2019-05-02T16:30:25.208Z,17.50
2019-05-02T16:32:57.003Z,17.70
2019-05-02T16:35:27.308Z,17.80
2019-05-02T16:37:56.640Z,18.00
2019-05-02T16:40:30.152Z,18.00
2019-05-02T16:43:00.174Z,17.90
2019-05-02T16:45:29.486Z,17.90
2019-05-02T16:48:00.501Z,17.90
2019-05-02T16:50:35.249Z,17.90
2019-05-02T16:53:02.288Z,17.90
2019-05-02T16:55:32.731Z,17.90
2019-05-02T16:58:06.971Z,17.90
2019-05-02T17:00:36.876Z,17.80
2019-05-02T17:03:04.482Z,17.80
2019-05-02T17:05:34.217Z,17.70
2019-05-02T17:08:22.620Z,17.60
2019-05-02T17:10:56.806Z,17.40
2019-05-02T17:13:27.557Z,17.30
2019-05-02T17:15:57.162Z,17.10
2019-05-02T17:18:26.558Z,17.00
2019-05-02T17:20:56.933Z,16.90
2019-05-02T17:23:26.503Z,16.80
2019-05-02T17:25:55.773Z,16.70
2019-05-02T17:28:25.166Z,16.50
2019-05-02T17:30:54.563Z,16.40
2019-05-02T17:33:23.833Z,16.20
2019-05-02T17:35:54.283Z,16.10
2019-05-02T17:38:28.901Z,16.10
2019-05-02T17:40:59.271Z,16.00
2019-05-02T17:43:25.842Z,15.90
2019-05-02T17:45:56.475Z,15.80
2019-05-02T17:48:25.901Z,15.70
2019-05-02T17:51:16.967Z,15.70
2019-05-02T17:53:49.797Z,15.60
2019-05-02T17:56:20.966Z,15.50
2019-05-02T17:58:54.251Z,15.40
2019-05-02T18:01:26.517Z,15.20
2019-05-02T18:03:56.203Z,15.10
2019-05-02T18:06:32.996Z,15.00
2019-05-02T18:08:56.417Z,14.90
2019-05-02T18:11:29.559Z,14.90
2019-05-02T18:13:56.738Z,14.80
2019-05-02T18:16:25.995Z,14.70
2019-05-02T18:18:55.272Z,14.70
2019-05-02T18:21:27.529Z,14.60
2019-05-02T18:23:57.075Z,14.50
2019-05-02T18:26:26.461Z,14.40
2019-05-02T18:28:57.245Z,14.40
2019-05-02T18:31:26.534Z,14.30
2019-05-02T18:33:55.969Z,14.20
2019-05-02T18:36:26.906Z,14.20
2019-05-02T18:39:00.657Z,14.10
2019-05-02T18:41:27.402Z,14.10
2019-05-02T18:43:56.646Z,14.00
2019-05-02T18:46:25.917Z,14.00
2019-05-02T18:48:55.236Z,13.90
2019-05-02T18:51:24.461Z,13.90
2019-05-02T18:53:57.870Z,13.90
2019-05-02T18:56:24.690Z,13.80
2019-05-02T18:58:54.140Z,13.80
2019-05-02T19:01:23.447Z,13.70
2019-05-02T19:03:56.198Z,13.70
2019-05-02T19:06:27.988Z,13.60
2019-05-02T19:08:57.656Z,13.50
2019-05-02T19:11:33.710Z,13.40
2019-05-02T19:14:02.563Z,13.30
2019-05-02T19:16:31.893Z,13.30
2019-05-02T19:19:01.762Z,13.30
2019-05-02T19:21:35.478Z,13.20
2019-05-02T19:24:02.442Z,13.10
2019-05-02T19:26:32.593Z,13.10
2019-05-02T19:29:08.441Z,13.10
2019-05-02T19:31:46.090Z,13.00
2019-05-02T19:34:16.728Z,12.90
2019-05-02T19:36:46.099Z,12.90
2019-05-02T19:39:15.350Z,12.90
2019-05-02T19:41:45.688Z,12.80
2019-05-02T19:44:15.480Z,12.80
2019-05-02T19:46:45.432Z,12.80
2019-05-02T19:49:16.284Z,12.70
2019-05-02T19:51:50.315Z,12.60
2019-05-02T19:54:17.155Z,12.50
2019-05-02T19:56:47.624Z,12.50
2019-05-02T19:59:22.503Z,12.40
2019-05-02T20:01:49.747Z,12.40
2019-05-02T20:04:19.166Z,12.30
2019-05-02T20:06:48.447Z,12.20
2019-05-02T20:09:17.693Z,12.10
2019-05-02T20:11:46.973Z,12.10
2019-05-02T20:14:16.404Z,12.10
2019-05-02T20:16:52.900Z,12.00
2019-05-02T20:19:26.931Z,12.00
2019-05-02T20:22:12.027Z,11.90
2019-05-02T20:24:59.858Z,11.60
2019-05-02T20:27:27.910Z,11.50
2019-05-02T20:29:56.194Z,11.30
2019-05-02T20:32:25.600Z,11.30
2019-05-02T20:34:55.101Z,11.20
2019-05-02T20:37:24.406Z,11.10
2019-05-02T20:39:53.723Z,11.00
2019-05-02T20:42:23.839Z,10.80
2019-05-02T20:44:53.216Z,10.60
2019-05-02T20:47:25.466Z,10.40
2019-05-02T20:49:54.720Z,10.20
2019-05-02T20:52:24.046Z,10.20
2019-05-02T20:54:53.314Z,10.20
2019-05-02T20:57:22.679Z,10.30
2019-05-02T20:59:52.631Z,10.10
2019-05-02T21:02:22.353Z,10.10
2019-05-02T21:04:52.240Z,9.80
2019-05-02T21:07:42.376Z,9.60
2019-05-02T21:10:34.105Z,9.60
2019-05-02T21:13:03.453Z,9.40
2019-05-02T21:15:32.698Z,9.30
2019-05-02T21:18:02.327Z,9.30
2019-05-02T21:20:32.540Z,9.20
2019-05-02T21:23:02.334Z,9.10
2019-05-02T21:25:32.598Z,9.00
2019-05-02T21:28:02.827Z,8.90
2019-05-02T21:30:32.438Z,8.90
2019-05-02T21:33:02.854Z,8.80
2019-05-02T21:35:32.574Z,8.80
2019-05-02T21:38:02.189Z,8.80
2019-05-02T21:40:32.702Z,8.60
2019-05-02T21:43:02.544Z,8.70
2019-05-02T21:45:31.867Z,8.70
2019-05-02T21:48:02.317Z,8.60
2019-05-02T21:51:03.108Z,8.60
2019-05-02T21:53:58.409Z,8.60
2019-05-02T21:56:43.476Z,8.60
2019-05-02T21:59:12.919Z,8.60
2019-05-02T22:01:51.895Z,8.50
2019-05-02T22:04:22.435Z,8.50
2019-05-02T22:06:52.364Z,8.40
2019-05-02T22:09:23.172Z,8.30
2019-05-02T22:11:52.774Z,8.30
2019-05-02T22:14:22.532Z,8.30
2019-05-02T22:16:53.057Z,8.30
2019-05-02T22:19:22.487Z,8.30
2019-05-02T22:21:52.473Z,8.30
2019-05-02T22:24:21.887Z,8.30
2019-05-02T22:26:52.629Z,8.30
2019-05-02T22:29:22.003Z,8.30
2019-05-02T22:31:52.179Z,8.30
2019-05-02T22:34:22.155Z,8.40
2019-05-02T22:36:53.847Z,8.30
2019-05-02T22:39:43.127Z,8.20
2019-05-02T22:42:12.872Z,8.10
2019-05-02T22:44:42.318Z,8.10
2019-05-02T22:47:14.023Z,8.10
2019-05-02T22:49:42.778Z,8.20
2019-05-02T22:52:14.145Z,8.20
2019-05-02T22:54:43.082Z,8.20
2019-05-02T22:57:14.342Z,8.30
2019-05-02T22:59:43.241Z,8.30
2019-05-02T23:02:13.058Z,8.30
2019-05-02T23:04:42.316Z,8.30
2019-05-02T23:07:12.664Z,8.20
2019-05-02T23:09:43.698Z,8.30
2019-05-02T23:12:13.233Z,8.30
2019-05-02T23:14:42.645Z,8.30
2019-05-02T23:17:12.772Z,8.30
2019-05-02T23:19:42.483Z,8.30
2019-05-02T23:22:12.761Z,8.30
2019-05-02T23:25:14.324Z,8.20
2019-05-02T23:27:56.102Z,8.10
2019-05-02T23:30:25.455Z,8.10
2019-05-02T23:32:54.787Z,8.00
2019-05-02T23:35:24.033Z,8.10
2019-05-02T23:37:53.298Z,8.10
2019-05-02T23:40:22.576Z,8.10
2019-05-02T23:42:52.408Z,8.10
2019-05-02T23:45:22.571Z,8.20
2019-05-02T23:47:52.778Z,8.20
2019-05-02T23:50:22.875Z,8.10
2019-05-02T23:52:52.397Z,8.10
2019-05-02T23:55:22.852Z,8.20
2019-05-02T23:57:52.490Z,8.20
